Flight Track Log - Related Links

Times and Time Zones

All times are in EDT time to prevent confusion due to time zone crossing. See the TCF642 flight status page for this flight to view local times or setup timezone preferences in your user account.

Time Position Orientation Groundspeed Altitude Reporting Facility
EDT Latitude Longitude Course Direction KTS MPH feet Rate Location/Type
Fri 06:20:53 AM 40.4911 -80.2422 333° Northwest 150 173 2,300  Level FAA TRACON SMA TRACON (SMA)
Fri 06:21:13 AM 40.5050 -80.2517 333° Northwest 159 183 3,200 2,195 Climbing FAA TRACON SMA TRACON (SMA)
Fri 06:21:34 AM 40.5200 -80.2511 North 182 209 3,800 2,100 Climbing FAA TRACON SMA TRACON (SMA)
Fri 06:21:53 AM 40.5372 -80.2486 North 207 238 4,600 2,769 Climbing FAA TRACON SMA TRACON (SMA)
Fri 06:22:13 AM 40.5614 -80.2458 North 231 266 5,600 3,300 Climbing FAA TRACON SMA TRACON (SMA)
Fri 06:22:33 AM 40.5814 -80.2431 North 236 272 6,800 3,450 Climbing FAA TRACON SMA TRACON (SMA)
Fri 06:22:53 AM 40.6022 -80.2403 North 243 280 7,900 3,659 Climbing FAA TRACON SMA TRACON (SMA)
Fri 06:23:14 AM 40.6286 -80.2372 North 247 284 9,300 3,450 Climbing FAA TRACON SMA TRACON (SMA)
Fri 06:23:33 AM 40.6500 -80.2344 North 256 295 10,200 2,923 Climbing FAA TRACON SMA TRACON (SMA)
Fri 06:23:53 AM 40.6722 -80.2317 North 261 300 11,200 2,700 Climbing FAA TRACON SMA TRACON (SMA)
Fri 06:24:13 AM 40.7014 -80.2283 North 273 314 12,000 2,250 Climbing FAA TRACON SMA TRACON (SMA)
Fri 06:24:33 AM 40.7258 -80.2253 North 286 329 12,700 2,100 Climbing FAA TRACON SMA TRACON (SMA)
Fri 06:24:53 AM 40.7514 -80.2219 North 298 343 13,400 2,400 Climbing FAA TRACON SMA TRACON (SMA)
Fri 06:25:13 AM 40.7844 -80.2181 North 309 356 14,300 3,000 Climbing FAA TRACON SMA TRACON (SMA)
Fri 06:25:33 AM 40.8108 -80.2136 North 310 357 15,400 3,450 Climbing FAA TRACON SMA TRACON (SMA)
Fri 06:25:53 AM 40.8406 -80.1947 26° Northeast 310 357 16,600 3,000 Climbing FAA TRACON SMA TRACON (SMA)
Fri 06:26:13 AM 40.8606 -80.1708 42° Northeast 314 361 17,400 1,650 Climbing FAA TRACON SMA TRACON (SMA)
Fri 06:26:33 AM 40.8811 -80.1461 42° Northeast 322 371 17,700 1,350 Climbing FAA TRACON SMA TRACON (SMA)
Fri 06:26:53 AM 40.8992 -80.1219 45° Northeast 328 377 18,300 2,250 Climbing FAA TRACON SMA TRACON (SMA)
Fri 06:27:13 AM 40.9283 -80.0900 40° Northeast 330 380 19,200 2,195 Climbing FAA TRACON SMA TRACON (SMA)
Fri 06:27:34 AM 40.9494 -80.0647 42° Northeast 332 382 19,800 1,950 Climbing FAA TRACON SMA TRACON (SMA)
Fri 06:27:53 AM 40.9708 -80.0389 42° Northeast 335 386 20,500 2,154 Climbing FAA TRACON SMA TRACON (SMA)
Fri 06:28:13 AM 40.9981 -80.0064 42° Northeast 339 390 21,200 1,950 Climbing FAA TRACON SMA TRACON (SMA)
Fri 06:28:33 AM 41.0200 -79.9806 42° Northeast 342 394 21,800 1,650 Climbing FAA TRACON SMA TRACON (SMA)
Fri 06:28:53 AM 41.0419 -79.9539 43° Northeast 345 397 22,300 1,756 Climbing FAA TRACON SMA TRACON (SMA)
Fri 06:29:14 AM 41.0703 -79.9211 41° Northeast 349 402 23,000 1,800 Climbing FAA TRACON SMA TRACON (SMA)
Fri 06:29:33 AM 41.0925 -79.8936 43° Northeast 353 406 23,500 1,538 Climbing FAA TRACON SMA TRACON (SMA)
Fri 06:29:53 AM 41.1153 -79.8656 43° Northeast 358 412 24,000 1,902 Climbing FAA TRACON SMA TRACON (SMA)
Fri 06:30:14 AM 41.1444 -79.8311 42° Northeast 361 415 24,800 2,100 Climbing FAA TRACON SMA TRACON (SMA)
Fri 06:30:33 AM 41.1658 -79.8056 42° Northeast 365 420 25,400 1,846 Climbing FAA TRACON SMA TRACON (SMA)
Fri 06:30:53 AM 41.1911 -79.7744 43° Northeast 368 423 26,000 2,100 Climbing FAA TRACON SMA TRACON (SMA)
Fri 06:31:13 AM 41.2203 -79.7383 43° Northeast 371 427 26,800 2,100 Climbing FAA TRACON SMA TRACON (SMA)
Fri 06:31:33 AM 41.2442 -79.7100 42° Northeast 373 429 27,400 1,610 Climbing FAA TRACON SMA TRACON (SMA)
Fri 06:31:54 AM 41.2683 -79.6811 42° Northeast 376 433 27,900 1,050 Climbing FAA TRACON SMA TRACON (SMA)
Fri 06:32:13 AM 41.2742 -79.6736 44° Northeast 378 435 28,100 308 Climbing FAA TRACON SMA TRACON (SMA)
Fri 06:32:33 AM 41.2742 -79.6736 194° South 378 435 28,100 1,909 Level FAA TRACON SMA TRACON (SMA)
Fri 06:32:57 AM 41.3364 -79.5683 52° Northeast 372 428 29,500 1,429 Climbing Cleveland Center
Fri 06:33:57 AM 41.3556 -79.4047 81° East 390 449 30,100 700 Climbing Cleveland Center
Fri 06:34:57 AM 41.3747 -79.2300 82° East 431 496 30,900 1,140 Climbing Cleveland Center
Fri 06:35:58 AM 41.3953 -79.0553 81° East 463 533 32,400 1,050 Climbing Cleveland Center
Fri 06:36:57 AM 41.4136 -78.8775 82° East 476 548 33,000 303 Climbing Cleveland Center
Fri 06:37:57 AM 41.4319 -78.7081 82° East 476 548 33,000  Level Cleveland Center
Fri 06:40:00 AM 41.4417 -78.3544 88° East 478 550 33,000 -33 Level New York Center
Fri 06:41:00 AM 41.4322 -78.1761 94° East 478 550 32,900 -694 Descending New York Center
Fri 06:42:01 AM 41.4203 -77.9978 95° East 484 557 31,600 -950 Descending New York Center
Fri 06:43:00 AM 41.4097 -77.8250 95° East 484 557 31,000 -300 Descending New York Center
Fri 06:44:01 AM 41.3972 -77.6467 95° East 484 557 31,000  Level New York Center
Fri 06:45:02 AM 41.3864 -77.4711 95° East 484 557 31,000  Level New York Center
Fri 06:46:00 AM 41.3722 -77.2789 96° East 484 557 31,000 -353 Level New York Center
Fri 06:47:01 AM 41.3606 -77.1064 95° East 484 557 30,300 -1,377 Descending New York Center
Fri 06:48:02 AM 41.3492 -76.9311 95° East 479 551 28,200 -2,085 Descending New York Center
Fri 06:48:59 AM 41.3328 -76.7639 97° East 473 544 26,200 -1,900 Descending New York Center
Fri 06:50:02 AM 41.2925 -76.6083 109° East 449 517 24,400 -1,736 Descending New York Center
Fri 06:51:00 AM 41.2539 -76.4617 109° East 438 504 22,700 -1,765 Descending New York Center
Fri 06:52:01 AM 41.2164 -76.3289 111° Southeast 428 493 20,900 -1,770 Descending New York Center
Fri 06:53:02 AM 41.1772 -76.1850 110° East 417 480 19,100 -1,785 Descending New York Center
Fri 06:54:02 AM 41.1381 -76.0331 109° East 403 464 17,300 -1,750 Descending New York Center
Fri 06:55:02 AM 41.1003 -75.8981 110° East 395 455 15,600 -1,780 Descending New York Center
Fri 06:56:00 AM 41.0681 -75.7772 109° East 389 448 13,800 -1,322 Descending New York Center
Fri 06:57:00 AM 41.0317 -75.6478 110° East 382 440 13,000 -400 Descending New York Center
Fri 06:58:00 AM 40.9936 -75.5078 110° East 382 440 13,000 -446 Level New York Center
Fri 06:59:01 AM 40.9606 -75.4011 112° Southeast 372 428 12,100 -1,180 Descending New York Center
Fri 07:00:02 AM 40.9294 -75.2864 110° East 321 369 10,600 -1,311 Descending New York Center
Fri 07:01:00 AM 40.9019 -75.1856 110° East 298 343 9,500 -1,150 Descending New York Center
Fri 07:02:02 AM 40.8744 -75.0878 110° East 290 334 8,300 -1,160 Descending New York Center
Fri 07:02:59 AM 40.8483 -74.9983 111° Southeast 290 334 7,200 -661 Descending New York Center
Fri 07:04:00 AM 40.8581 -74.9028 82° East 257 296 7,000 -99 Descending New York Center
Fri 07:05:00 AM 40.8764 -74.7942 77° East 270 311 7,000 -248 Level New York Center
Fri 07:06:01 AM 40.8819 -74.6931 86° East 271 312 6,500 -504 Descending New York Center
Fri 07:06:59 AM 40.8831 -74.5942 89° East 271 312 6,000 -280 Descending New York Center
Fri 07:07:48 AM 40.8333 -74.5667 157° South 270 311 6,000 -261 Level New York TRACON
Fri 07:08:54 AM 40.7500 -74.5833 189° South 263 303 5,500 -476 Descending New York TRACON
Fri 07:09:54 AM 40.6667 -74.5667 171° South 267 307 5,000 -300 Descending New York TRACON
Fri 07:10:54 AM 40.6000 -74.5333 159° South 275 316 4,900 -474 Descending New York TRACON
Fri 07:11:48 AM 40.5500 -74.4833 143° Southeast 266 306 4,100 -850 Descending New York TRACON
Fri 07:12:54 AM 40.5000 -74.4167 135° Southeast 225 259 3,200 -524 Descending New York TRACON
Fri 07:13:54 AM 40.4667 -74.3500 123° Southeast 205 236 3,000 -100 Descending New York TRACON
Fri 07:14:54 AM 40.5000 -74.3000 49° Northeast 172 198 3,000  Level New York TRACON
Fri 07:15:54 AM 40.5333 -74.2667 37° Northeast 161 185 3,000 -250 Level New York TRACON
Fri 07:16:54 AM 40.5667 -74.2333 37° Northeast 157 181 2,500 -650 Descending New York TRACON
Fri 07:17:54 AM 40.6167 -74.2167 14° North 157 181 1,700 -800 Descending New York TRACON
Fri 07:18:54 AM 40.6500 -74.2000 21° North 125 144 900 -800 Descending New York TRACON
Fri 07:20:00 AM 40.6833 -74.1667 123° Southeast  Level FlightAware Approximate
Fri 07:27:00 AM 40.6925 -74.1687 123° Southeast  Level Estimated
Fri 07:28:00 AM 40.6925 -74.1687 123° Southeast  Level Estimated
Fri 07:29:00 AM 40.6925 -74.1687 123° Southeast  Level Estimated

Login

Don't have an account? Register now (free) for customized features, flight alerts, and more!